Time;durP1;ratioP1;P1;durP2;ratioP2;P2;SDS_P1;SDS_P2;PMS_P1;PMS_P2;Temp;Humidity;BMP_temperature;BMP_pressure;BME280_temperature;BME280_humidity;BME280_pressure;Samples;Min_cycle;Max_cycle;Signal;HPM_P1;HPM_P2
2022/02/19 00:00:50;;;;;;;4.07;1.42;;;9.70;76.80;;;;;;5042855;28;20057;-63
2022/02/19 00:03:16;;;;;;;6.20;1.55;;;9.70;76.50;;;;;;5016591;28;20061;-64
2022/02/19 00:05:42;;;;;;;7.13;1.92;;;9.70;76.20;;;;;;5045732;28;20032;-63
2022/02/19 00:08:08;;;;;;;6.93;1.55;;;9.70;75.40;;;;;;5053912;28;20514;-63
2022/02/19 00:10:34;;;;;;;9.38;1.60;;;9.70;75.90;;;;;;5043219;28;20052;-63
2022/02/19 00:13:00;;;;;;;6.00;2.40;;;9.70;74.70;;;;;;5034851;28;20405;-63
2022/02/19 00:15:26;;;;;;;4.85;1.30;;;9.70;74.50;;;;;;5037397;28;20037;-63
2022/02/19 00:17:52;;;;;;;5.68;1.73;;;9.70;74.80;;;;;;5054394;28;20468;-63
2022/02/19 00:20:17;;;;;;;4.30;1.60;;;9.70;75.00;;;;;;5041577;28;20056;-64
2022/02/19 00:22:43;;;;;;;5.53;1.60;;;9.80;75.00;;;;;;5054659;28;20112;-63
2022/02/19 00:25:09;;;;;;;6.80;1.98;;;9.70;74.60;;;;;;5040357;28;20400;-63
2022/02/19 00:27:35;;;;;;;4.25;1.33;;;9.70;74.80;;;;;;5034722;28;20037;-64
2022/02/19 00:30:00;;;;;;;5.95;1.92;;;9.70;75.20;;;;;;5046899;28;20099;-63
2022/02/19 00:32:26;;;;;;;3.60;1.25;;;9.80;75.20;;;;;;5044786;28;20033;-63
2022/02/19 00:34:51;;;;;;;4.38;1.45;;;9.80;75.40;;;;;;5040382;28;20040;-63
2022/02/19 00:37:18;;;;;;;3.28;1.35;;;9.70;75.50;;;;;;5036069;28;20385;-64
2022/02/19 00:39:43;;;;;;;9.65;3.58;;;9.80;75.60;;;;;;5058715;28;20033;-63
2022/02/19 00:42:09;;;;;;;7.38;1.73;;;9.80;75.30;;;;;;5053829;28;20345;-63
2022/02/19 00:44:35;;;;;;;5.90;1.63;;;9.80;75.30;;;;;;5052690;28;20052;-63
2022/02/19 00:47:01;;;;;;;4.10;1.83;;;9.80;75.20;;;;;;5036824;28;20029;-63
2022/02/19 00:49:27;;;;;;;6.40;1.50;;;9.70;74.70;;;;;;5052848;28;20045;-63
2022/02/19 00:51:52;;;;;;;5.10;1.35;;;9.70;74.70;;;;;;5038608;28;20026;-63
2022/02/19 00:54:18;;;;;;;5.95;2.10;;;9.70;74.30;;;;;;5042944;28;20040;-63
2022/02/19 00:56:43;;;;;;;4.43;1.95;;;9.70;73.60;;;;;;5040278;28;20566;-63
2022/02/19 00:59:09;;;;;;;5.47;1.70;;;9.70;73.20;;;;;;5034254;28;20037;-63
2022/02/19 01:01:36;;;;;;;4.00;1.50;;;9.70;73.50;;;;;;5033757;28;20049;-64
2022/02/19 01:04:02;;;;;;;6.88;3.42;;;9.60;73.30;;;;;;5033761;28;20048;-63
2022/02/19 01:06:27;;;;;;;6.30;1.70;;;9.60;73.20;;;;;;5016438;28;20033;-63
2022/02/19 01:08:53;;;;;;;7.38;1.67;;;9.60;73.20;;;;;;5047686;28;20017;-63
2022/02/19 01:11:19;;;;;;;4.45;1.77;;;9.60;72.40;;;;;;5048464;28;20032;-63
2022/02/19 01:13:47;;;;;;;5.60;1.58;;;9.60;71.90;;;;;;5047891;28;20049;-63
2022/02/19 01:16:12;;;;;;;3.80;1.50;;;9.60;71.00;;;;;;5035335;28;20044;-63
2022/02/19 01:18:38;;;;;;;11.48;2.30;;;9.60;71.20;;;;;;5033976;28;20017;-63
2022/02/19 01:21:03;;;;;;;6.35;1.70;;;9.60;71.30;;;;;;5033604;28;20497;-63
2022/02/19 01:23:29;;;;;;;4.97;1.80;;;9.60;71.20;;;;;;5034063;28;20029;-64
2022/02/19 01:25:55;;;;;;;6.88;2.30;;;9.60;70.40;;;;;;5042112;28;20029;-63
2022/02/19 01:28:20;;;;;;;6.25;1.83;;;9.50;69.90;;;;;;5051807;28;20025;-63
2022/02/19 01:30:46;;;;;;;5.75;1.80;;;9.60;70.20;;;;;;5045346;28;20037;-63
2022/02/19 01:33:11;;;;;;;5.13;1.77;;;9.50;69.60;;;;;;5050996;28;20025;-63
2022/02/19 01:35:37;;;;;;;5.97;1.77;;;9.50;69.30;;;;;;5034052;28;20030;-63
2022/02/19 01:38:03;;;;;;;12.80;2.15;;;9.50;69.10;;;;;;5033349;28;20041;-63
2022/02/19 01:40:29;;;;;;;4.50;1.60;;;9.50;68.40;;;;;;5034645;28;20358;-63
2022/02/19 01:42:55;;;;;;;5.70;1.95;;;9.50;68.00;;;;;;5033158;28;20031;-63
2022/02/19 01:45:20;;;;;;;5.85;1.73;;;9.50;67.20;;;;;;5048918;28;20621;-64
2022/02/19 01:47:46;;;;;;;5.30;1.42;;;9.50;66.30;;;;;;5053282;28;20031;-63
2022/02/19 01:50:12;;;;;;;6.15;2.17;;;9.50;67.00;;;;;;5036102;28;20136;-63
2022/02/19 01:52:41;;;;;;;9.00;2.65;;;9.50;66.40;;;;;;5032825;28;20022;-63
2022/02/19 01:55:06;;;;;;;4.43;1.80;;;9.50;66.40;;;;;;5048191;28;20040;-64
2022/02/19 01:57:32;;;;;;;6.43;1.95;;;9.50;65.50;;;;;;5052932;28;20025;-64
2022/02/19 01:59:58;;;;;;;4.25;1.90;;;9.50;65.80;;;;;;5037774;28;20413;-63
2022/02/19 02:02:23;;;;;;;8.50;3.05;;;9.50;65.90;;;;;;5030908;28;20064;-64
2022/02/19 02:04:49;;;;;;;4.35;1.60;;;9.50;65.10;;;;;;5045509;28;20384;-64
2022/02/19 02:07:15;;;;;;;8.13;1.90;;;9.50;64.60;;;;;;5052769;28;20038;-63
2022/02/19 02:09:40;;;;;;;5.75;1.80;;;9.50;64.80;;;;;;5038979;28;20550;-63
2022/02/19 02:12:06;;;;;;;11.93;3.33;;;9.50;64.10;;;;;;5052621;28;20021;-63
2022/02/19 02:14:38;;;;;;;5.60;2.35;;;9.50;64.00;;;;;;5048637;28;20172;-64
2022/02/19 02:17:04;;;;;;;5.90;2.28;;;9.50;63.20;;;;;;5032400;28;20026;-63
2022/02/19 02:19:29;;;;;;;10.75;2.72;;;9.50;63.30;;;;;;5021054;28;20052;-63
2022/02/19 02:21:55;;;;;;;7.00;1.90;;;9.50;63.70;;;;;;5014335;28;20068;-63
2022/02/19 02:24:20;;;;;;;6.43;1.80;;;9.40;62.50;;;;;;5041833;28;20108;-63
2022/02/19 02:26:46;;;;;;;6.15;2.00;;;9.40;62.80;;;;;;5052467;28;20383;-63
2022/02/19 02:29:12;;;;;;;6.35;2.00;;;9.40;62.70;;;;;;5044483;28;20037;-63
2022/02/19 02:31:37;;;;;;;6.75;2.10;;;9.40;62.70;;;;;;5031905;28;20072;-63
2022/02/19 02:34:03;;;;;;;6.47;2.72;;;9.40;62.30;;;;;;5044743;28;20021;-63
2022/02/19 02:36:28;;;;;;;9.68;1.90;;;9.40;62.70;;;;;;5050559;28;20115;-63
2022/02/19 02:38:54;;;;;;;6.05;1.63;;;9.40;62.30;;;;;;5050007;28;20033;-63
2022/02/19 02:41:23;;;;;;;6.53;1.83;;;9.40;62.30;;;;;;5047992;28;20029;-63
2022/02/19 02:43:49;;;;;;;5.20;1.85;;;9.40;62.40;;;;;;5045383;28;20028;-63
2022/02/19 02:46:14;;;;;;;8.52;2.35;;;9.40;62.10;;;;;;5049053;28;20034;-63
2022/02/19 02:48:40;;;;;;;6.03;1.58;;;9.40;61.80;;;;;;5032757;28;20377;-63
2022/02/19 02:51:07;;;;;;;4.95;1.98;;;9.40;61.70;;;;;;5032127;28;20033;-63
2022/02/19 02:53:32;;;;;;;3.85;1.73;;;9.40;61.40;;;;;;5032320;28;20091;-63
2022/02/19 02:55:58;;;;;;;7.03;1.80;;;9.40;61.40;;;;;;5014001;28;20029;-63
2022/02/19 02:58:23;;;;;;;6.07;1.65;;;9.40;60.80;;;;;;5042350;28;20033;-63
2022/02/19 03:00:49;;;;;;;6.25;2.10;;;9.40;61.30;;;;;;5041419;28;20037;-63
2022/02/19 03:03:14;;;;;;;4.15;1.58;;;9.40;61.00;;;;;;5048913;28;20029;-63
2022/02/19 03:05:41;;;;;;;2.90;1.52;;;9.40;60.90;;;;;;5051958;28;20028;-63
2022/02/19 03:08:07;;;;;;;5.60;1.77;;;9.40;60.60;;;;;;5049762;28;20044;-63
2022/02/19 03:10:33;;;;;;;9.40;2.22;;;9.40;60.50;;;;;;5051663;28;20036;-63
2022/02/19 03:12:59;;;;;;;5.43;2.03;;;9.40;60.80;;;;;;5033347;28;20480;-64
2022/02/19 03:15:24;;;;;;;5.15;1.92;;;9.30;59.50;;;;;;5033234;28;20043;-63
2022/02/19 03:17:50;;;;;;;4.82;2.05;;;9.30;60.20;;;;;;5037333;28;20021;-63
2022/02/19 03:20:22;;;;;;;6.88;1.80;;;9.30;60.00;;;;;;5033346;28;20025;-63
2022/02/19 03:22:48;;;;;;;6.30;1.63;;;9.20;60.70;;;;;;5031636;28;20024;-63
2022/02/19 03:25:16;;;;;;;4.93;1.67;;;9.30;60.40;;;;;;5039030;28;20560;-63
2022/02/19 03:27:42;;;;;;;7.40;2.25;;;9.20;60.00;;;;;;5039924;28;20029;-63
2022/02/19 03:30:10;;;;;;;8.45;3.08;;;9.20;60.10;;;;;;5030416;28;20519;-63
2022/02/19 03:32:36;;;;;;;5.47;2.42;;;9.20;59.70;;;;;;5017158;28;20018;-63
2022/02/19 03:35:02;;;;;;;7.75;2.00;;;9.20;59.80;;;;;;5031328;28;20108;-63
2022/02/19 03:37:27;;;;;;;5.35;1.92;;;9.20;60.20;;;;;;5033925;28;20738;-63
2022/02/19 03:39:53;;;;;;;4.72;1.50;;;9.20;60.00;;;;;;5050783;28;20033;-63
2022/02/19 03:42:18;;;;;;;3.92;1.60;;;9.20;60.00;;;;;;5039020;28;20025;-62
2022/02/19 03:44:44;;;;;;;5.80;1.70;;;9.20;60.00;;;;;;5032801;28;20036;-63
2022/02/19 03:47:10;;;;;;;4.32;1.73;;;9.10;60.30;;;;;;5031471;28;20114;-63
2022/02/19 03:49:35;;;;;;;4.90;1.80;;;9.10;60.00;;;;;;5050993;28;20063;-63
2022/02/19 03:52:01;;;;;;;4.97;1.60;;;9.10;59.70;;;;;;5031919;28;20026;-64
2022/02/19 03:54:27;;;;;;;7.20;2.22;;;9.10;60.10;;;;;;5031922;28;20026;-63
2022/02/19 03:56:52;;;;;;;7.85;3.58;;;9.10;60.20;;;;;;5031612;28;20481;-63
2022/02/19 03:59:18;;;;;;;3.35;1.42;;;9.10;60.30;;;;;;5014406;28;20121;-63
2022/02/19 04:01:44;;;;;;;5.20;1.85;;;9.10;60.20;;;;;;5031423;28;20049;-62
2022/02/19 04:04:11;;;;;;;7.57;1.65;;;9.10;60.50;;;;;;5049214;28;20029;-62
2022/02/19 04:06:37;;;;;;;7.15;1.90;;;9.10;60.60;;;;;;5032665;28;20029;-63
2022/02/19 04:09:04;;;;;;;4.72;2.17;;;9.10;60.60;;;;;;5034095;28;20025;-64
2022/02/19 04:11:29;;;;;;;4.35;1.52;;;9.00;60.80;;;;;;5035898;28;20049;-63
2022/02/19 04:13:55;;;;;;;4.80;1.58;;;9.10;61.10;;;;;;5039677;28;20377;-64
2022/02/19 04:16:20;;;;;;;5.20;2.00;;;9.10;61.60;;;;;;5031153;28;20044;-63
2022/02/19 04:18:46;;;;;;;4.53;1.63;;;9.10;61.40;;;;;;5041000;28;20040;-62
2022/02/19 04:21:11;;;;;;;5.85;1.50;;;9.10;61.80;;;;;;5046733;28;20033;-63
2022/02/19 04:23:37;;;;;;;6.25;1.55;;;9.10;62.40;;;;;;5046239;28;20029;-63
2022/02/19 04:26:03;;;;;;;5.53;1.70;;;9.10;63.00;;;;;;5050704;28;20028;-63
2022/02/19 04:28:29;;;;;;;4.40;1.67;;;9.10;63.70;;;;;;5038274;28;20025;-63
2022/02/19 04:30:54;;;;;;;8.23;1.75;;;9.00;64.40;;;;;;5043434;28;20463;-63
2022/02/19 04:33:20;;;;;;;10.00;1.95;;;9.00;65.20;;;;;;5046715;28;20551;-63
2022/02/19 04:35:46;;;;;;;5.78;1.95;;;8.90;65.70;;;;;;5032684;28;20029;-63
2022/02/19 04:38:12;;;;;;;6.80;1.65;;;8.90;66.10;;;;;;5022508;28;20060;-63
2022/02/19 04:40:38;;;;;;;8.00;1.90;;;8.90;67.00;;;;;;5031008;28;20465;-63
2022/02/19 04:43:04;;;;;;;10.57;1.98;;;8.80;67.00;;;;;;5042779;28;20025;-63
2022/02/19 04:45:29;;;;;;;6.60;1.75;;;8.80;67.50;;;;;;5054444;28;20037;-63
2022/02/19 04:47:55;;;;;;;5.35;1.85;;;8.80;68.10;;;;;;5050461;28;20078;-63
2022/02/19 04:50:20;;;;;;;3.00;1.85;;;8.70;68.50;;;;;;5054413;28;20036;-63
2022/02/19 04:52:46;;;;;;;4.70;2.13;;;8.70;68.80;;;;;;5045610;28;20024;-63
2022/02/19 04:55:11;;;;;;;4.10;1.80;;;8.70;69.00;;;;;;5033732;28;20034;-62
2022/02/19 04:57:43;;;;;;;4.03;1.75;;;8.70;69.30;;;;;;5038771;28;20051;-63
2022/02/19 05:00:16;;;;;;;5.95;2.67;;;8.60;69.70;;;;;;5049701;28;20113;-63
2022/02/19 05:02:42;;;;;;;7.68;2.70;;;8.60;69.80;;;;;;5038413;28;20037;-63
2022/02/19 05:05:08;;;;;;;7.78;1.88;;;8.60;70.50;;;;;;5049752;28;20036;-63
2022/02/19 05:07:34;;;;;;;3.40;1.55;;;8.60;70.50;;;;;;5049748;28;20025;-63
2022/02/19 05:10:00;;;;;;;4.72;2.38;;;8.60;70.90;;;;;;5051682;28;20521;-63
2022/02/19 05:12:25;;;;;;;4.32;2.00;;;8.50;71.20;;;;;;5042504;28;20163;-63
2022/02/19 05:14:51;;;;;;;6.82;1.60;;;8.50;71.30;;;;;;5034541;28;20033;-63
2022/02/19 05:17:16;;;;;;;6.53;1.67;;;8.50;71.40;;;;;;5036808;28;20029;-63
2022/02/19 05:19:42;;;;;;;9.90;1.85;;;8.50;71.70;;;;;;5042498;28;20025;-63
2022/02/19 05:22:08;;;;;;;4.45;1.75;;;8.50;71.90;;;;;;5068194;28;20431;-63
2022/02/19 05:24:34;;;;;;;7.65;2.55;;;8.50;72.30;;;;;;5052846;28;20025;-63
2022/02/19 05:26:59;;;;;;;4.50;1.90;;;8.50;72.30;;;;;;5037445;28;20021;-64
2022/02/19 05:29:25;;;;;;;5.70;2.33;;;8.40;72.50;;;;;;5052391;28;20373;-63
2022/02/19 05:31:50;;;;;;;4.78;1.80;;;8.50;72.70;;;;;;5053562;28;20092;-63
2022/02/19 05:34:16;;;;;;;7.22;1.90;;;8.50;72.60;;;;;;5041662;28;20040;-63
2022/02/19 05:36:41;;;;;;;7.32;1.80;;;8.40;72.80;;;;;;5033630;28;20026;-63
2022/02/19 05:39:07;;;;;;;3.63;1.67;;;8.40;72.90;;;;;;5041853;28;20021;-63
2022/02/19 05:41:32;;;;;;;4.80;1.92;;;8.40;73.00;;;;;;5033526;28;20068;-64
2022/02/19 05:44:00;;;;;;;5.43;1.85;;;8.30;73.00;;;;;;5044689;28;20063;-63
2022/02/19 05:46:26;;;;;;;5.03;1.90;;;8.40;73.30;;;;;;5053135;28;20036;-63
2022/02/19 05:48:51;;;;;;;5.63;1.85;;;8.40;73.40;;;;;;5047105;28;20072;-63
2022/02/19 05:51:17;;;;;;;3.72;1.50;;;8.40;73.70;;;;;;5051636;28;20041;-63
2022/02/19 05:53:42;;;;;;;6.57;1.98;;;8.30;74.10;;;;;;5038114;28;20034;-63
2022/02/19 05:56:08;;;;;;;7.75;2.08;;;8.20;74.50;;;;;;5042034;28;20032;-63
2022/02/19 05:58:33;;;;;;;6.72;2.28;;;8.20;74.80;;;;;;5050683;28;20808;-64
2022/02/19 06:01:01;;;;;;;10.55;2.03;;;8.20;75.20;;;;;;5052832;28;20123;-63
2022/02/19 06:03:27;;;;;;;10.05;2.00;;;8.20;75.80;;;;;;5044475;28;20033;-64
2022/02/19 06:05:53;;;;;;;3.95;1.80;;;8.20;76.10;;;;;;5032681;28;20017;-63
2022/02/19 06:08:18;;;;;;;10.77;2.10;;;8.10;76.70;;;;;;5032406;28;20431;-63
2022/02/19 06:10:44;;;;;;;7.03;1.52;;;8.10;77.10;;;;;;5035111;28;20129;-64
2022/02/19 06:13:09;;;;;;;4.45;2.05;;;8.00;77.40;;;;;;5058840;28;20037;-64
2022/02/19 06:15:34;;;;;;;4.45;2.35;;;8.00;77.70;;;;;;5051475;28;20029;-62
2022/02/19 06:18:00;;;;;;;5.00;1.65;;;8.00;78.10;;;;;;5043820;28;20120;-63
2022/02/19 06:20:26;;;;;;;5.85;1.85;;;8.00;78.40;;;;;;5032664;28;20028;-63
2022/02/19 06:22:51;;;;;;;9.52;2.30;;;8.00;78.70;;;;;;5039026;28;20036;-63
2022/02/19 06:25:17;;;;;;;5.80;1.75;;;7.90;79.70;;;;;;5043675;28;20029;-62
2022/02/19 06:27:46;;;;;;;3.15;1.45;;;7.90;79.30;;;;;;5037364;28;20017;-62
2022/02/19 06:30:13;;;;;;;5.68;2.03;;;8.00;79.30;;;;;;5037702;28;20041;-62
2022/02/19 06:32:40;;;;;;;6.32;1.90;;;7.90;79.80;;;;;;5039180;28;20029;-62
2022/02/19 06:35:07;;;;;;;6.90;2.30;;;7.90;80.00;;;;;;5039306;28;20108;-62
2022/02/19 06:37:40;;;;;;;5.63;2.05;;;8.00;80.20;;;;;;5036180;28;20094;-61
2022/02/19 06:40:07;;;;;;;6.35;1.92;;;7.90;80.00;;;;;;5045589;28;20032;-62
2022/02/19 06:42:33;;;;;;;3.28;1.38;;;7.90;80.10;;;;;;5047599;28;20027;-62
2022/02/19 06:44:58;;;;;;;4.43;1.55;;;8.00;80.80;;;;;;5051645;28;20459;-64
2022/02/19 06:47:24;;;;;;;3.80;1.33;;;7.90;80.30;;;;;;5047326;28;20029;-62
2022/02/19 06:49:49;;;;;;;3.95;1.38;;;8.00;80.40;;;;;;5047010;28;20029;-63
2022/02/19 06:52:15;;;;;;;2.78;1.50;;;7.90;80.50;;;;;;5036481;28;20025;-63
2022/02/19 06:54:40;;;;;;;8.25;1.65;;;7.90;80.50;;;;;;5050992;28;20025;-63
2022/02/19 06:57:10;;;;;;;3.83;1.50;;;7.90;80.70;;;;;;5038131;28;20036;-63
2022/02/19 06:59:35;;;;;;;3.90;1.27;;;7.90;80.90;;;;;;5033255;28;20025;-63
2022/02/19 07:02:01;;;;;;;4.47;1.52;;;8.00;81.00;;;;;;5047413;28;20045;-63
2022/02/19 07:04:26;;;;;;;6.07;1.48;;;8.00;81.20;;;;;;5051549;28;20104;-63
2022/02/19 07:06:52;;;;;;;3.80;1.17;;;8.00;81.60;;;;;;5037869;28;20037;-63
2022/02/19 07:09:17;;;;;;;4.20;1.25;;;8.00;81.50;;;;;;5048872;28;20357;-63
2022/02/19 07:11:43;;;;;;;3.95;1.15;;;8.00;81.60;;;;;;5050012;28;20037;-63
2022/02/19 07:14:08;;;;;;;4.03;1.50;;;8.00;81.60;;;;;;5033681;28;20033;-63
2022/02/19 07:16:33;;;;;;;4.50;1.67;;;8.00;81.60;;;;;;5032607;28;20480;-63
2022/02/19 07:18:59;;;;;;;4.82;1.40;;;8.10;81.90;;;;;;5042875;28;20029;-62
2022/02/19 07:21:24;;;;;;;4.90;1.95;;;8.10;82.20;;;;;;5031612;28;20121;-62
2022/02/19 07:23:50;;;;;;;4.57;1.13;;;8.00;82.80;;;;;;5042663;28;20044;-62
2022/02/19 07:26:15;;;;;;;2.78;1.05;;;8.00;82.90;;;;;;5031155;28;20495;-62
2022/02/19 07:28:41;;;;;;;1.52;1.20;;;8.00;83.00;;;;;;5043436;28;20029;-62
2022/02/19 07:31:08;;;;;;;4.63;1.30;;;8.00;83.30;;;;;;5030737;28;20117;-63
2022/02/19 07:33:33;;;;;;;2.10;1.13;;;8.00;83.60;;;;;;5045845;28;20033;-62
2022/02/19 07:35:58;;;;;;;4.05;1.40;;;8.00;83.10;;;;;;5034834;28;20362;-62
2022/02/19 07:38:24;;;;;;;4.22;1.40;;;8.00;83.00;;;;;;5032485;28;20108;-63
2022/02/19 07:40:49;;;;;;;1.30;0.95;;;8.10;83.20;;;;;;5039132;28;20388;-62
2022/02/19 07:43:15;;;;;;;5.10;1.60;;;8.10;83.20;;;;;;5021248;28;20032;-62
2022/02/19 07:45:40;;;;;;;2.75;1.52;;;8.10;83.50;;;;;;5036419;28;20021;-62
2022/02/19 07:48:06;;;;;;;6.35;1.60;;;8.10;83.60;;;;;;5030624;28;20040;-61
2022/02/19 07:58:44;;;;;;;3.27;1.30;;;8.10;83.70;;;;;;5042468;28;20279;-62
2022/02/19 08:01:10;;;;;;;3.97;1.58;;;8.10;84.00;;;;;;5034664;28;20280;-63
2022/02/19 08:03:36;;;;;;;4.85;1.67;;;8.10;84.00;;;;;;5043046;28;20041;-62
2022/02/19 08:06:02;;;;;;;6.30;2.20;;;8.10;83.90;;;;;;5047223;28;20032;-62
2022/02/19 08:08:27;;;;;;;3.30;1.30;;;8.10;84.00;;;;;;5034755;28;20032;-62
2022/02/19 08:10:53;;;;;;;3.95;1.60;;;8.10;84.00;;;;;;5047586;28;20082;-62
2022/02/19 08:13:21;;;;;;;3.33;1.40;;;8.10;84.10;;;;;;5024891;28;20051;-62
2022/02/19 08:15:49;;;;;;;3.28;1.20;;;8.20;84.10;;;;;;5035992;28;20037;-62
2022/02/19 08:18:15;;;;;;;3.75;1.30;;;8.20;84.20;;;;;;5047697;28;20036;-61
2022/02/19 08:20:42;;;;;;;4.07;1.40;;;8.20;84.30;;;;;;5053151;28;20029;-61
2022/02/19 08:23:09;;;;;;;5.50;1.30;;;8.20;84.10;;;;;;5046555;28;20032;-62
2022/02/19 08:25:36;;;;;;;4.35;1.77;;;8.20;83.80;;;;;;5053500;28;20033;-62
2022/02/19 08:28:05;;;;;;;3.60;1.15;;;8.20;83.70;;;;;;5043949;28;20034;-62
2022/02/19 08:30:34;;;;;;;3.42;1.38;;;8.20;83.70;;;;;;5034078;28;20042;-62
2022/02/19 08:33:00;;;;;;;3.45;1.17;;;8.30;83.80;;;;;;5044376;28;20084;-62
2022/02/19 08:35:25;;;;;;;3.97;1.40;;;8.30;83.70;;;;;;5050225;28;20033;-61
2022/02/19 08:37:51;;;;;;;6.00;1.58;;;8.30;83.90;;;;;;5048828;28;20033;-61
2022/02/19 08:40:16;;;;;;;2.13;1.00;;;8.30;83.90;;;;;;5048796;28;20036;-62
2022/02/19 08:42:42;;;;;;;6.10;1.90;;;8.30;84.40;;;;;;5042473;28;20026;-61
2022/02/19 08:45:09;;;;;;;2.40;1.30;;;8.30;84.50;;;;;;5047057;28;20061;-63
2022/02/19 08:47:34;;;;;;;4.28;2.03;;;8.30;85.10;;;;;;5043275;28;20021;-61
2022/02/19 08:50:01;;;;;;;1.45;1.00;;;8.30;85.60;;;;;;5045965;28;20430;-62
2022/02/19 08:52:27;;;;;;;3.78;1.50;;;8.30;85.70;;;;;;5046031;28;20049;-62
2022/02/19 08:54:52;;;;;;;4.00;1.33;;;8.30;85.50;;;;;;5045023;28;20392;-62
2022/02/19 08:57:18;;;;;;;3.67;1.30;;;8.20;85.70;;;;;;5037154;28;20025;-62
2022/02/19 08:59:43;;;;;;;3.83;1.60;;;8.20;86.30;;;;;;5034762;28;20022;-63
2022/02/19 09:02:09;;;;;;;3.50;1.50;;;8.10;86.50;;;;;;5033314;28;20493;-62
2022/02/19 09:04:35;;;;;;;4.32;1.35;;;8.20;86.90;;;;;;5052838;28;20045;-62
2022/02/19 09:07:00;;;;;;;5.47;2.00;;;8.20;87.20;;;;;;5045831;28;20079;-63
2022/02/19 09:09:26;;;;;;;3.90;1.50;;;8.20;87.60;;;;;;5040503;28;20734;-62
2022/02/19 09:11:51;;;;;;;5.15;1.80;;;8.10;87.70;;;;;;5042608;28;20034;-63
2022/02/19 09:14:17;;;;;;;4.20;1.48;;;8.10;87.90;;;;;;5049031;28;20021;-62
2022/02/19 09:16:43;;;;;;;5.80;2.15;;;8.10;88.70;;;;;;5038016;28;20060;-62
2022/02/19 09:19:10;;;;;;;5.13;2.10;;;8.10;89.30;;;;;;5035908;28;20120;-62
2022/02/19 09:21:37;;;;;;;4.78;1.65;;;8.10;89.60;;;;;;5047442;28;20595;-62
2022/02/19 09:24:04;;;;;;;4.53;1.67;;;8.10;89.70;;;;;;5051392;28;20423;-62
2022/02/19 09:26:30;;;;;;;4.40;1.45;;;8.10;89.80;;;;;;5049840;28;20030;-62
2022/02/19 09:28:55;;;;;;;4.53;1.73;;;8.10;90.00;;;;;;5038304;28;20028;-62
2022/02/19 09:31:22;;;;;;;7.47;1.73;;;8.10;90.10;;;;;;5050749;28;20098;-62
2022/02/19 09:33:48;;;;;;;4.13;1.70;;;8.20;90.00;;;;;;5034074;28;20068;-62
2022/02/19 09:36:14;;;;;;;6.18;2.10;;;8.20;90.20;;;;;;5033643;28;20041;-63
2022/02/19 09:38:40;;;;;;;7.80;2.88;;;8.20;90.40;;;;;;5039046;28;20071;-62
2022/02/19 09:41:07;;;;;;;4.10;1.38;;;8.20;90.50;;;;;;5053222;28;20025;-62
2022/02/19 09:43:36;;;;;;;5.93;1.98;;;8.20;90.90;;;;;;5052196;28;20025;-62
2022/02/19 09:46:06;;;;;;;6.55;2.05;;;8.10;91.10;;;;;;5049925;28;20585;-62
2022/02/19 09:48:33;;;;;;;5.07;1.60;;;8.10;91.40;;;;;;5056470;28;20029;-62
2022/02/19 09:50:59;;;;;;;11.40;3.13;;;8.10;92.00;;;;;;5039860;28;20060;-62
2022/02/19 09:53:26;;;;;;;7.90;1.98;;;8.10;92.00;;;;;;5055821;28;20032;-63
2022/02/19 09:55:52;;;;;;;5.00;1.90;;;8.20;92.10;;;;;;5045092;28;20060;-62
2022/02/19 09:58:17;;;;;;;6.18;2.47;;;8.30;91.80;;;;;;5053506;28;20102;-63
2022/02/19 10:00:45;;;;;;;6.45;2.78;;;8.30;91.60;;;;;;5045700;28;20431;-62
2022/02/19 10:03:32;;;;;;;8.43;2.28;;;8.40;91.30;;;;;;5055883;28;20041;-62
2022/02/19 10:06:11;;;;;;;5.75;1.73;;;8.50;91.00;;;;;;5046610;28;20373;-61
2022/02/19 10:08:37;;;;;;;8.60;2.35;;;8.50;91.00;;;;;;5044022;28;20491;-62
2022/02/19 10:11:04;;;;;;;5.88;1.85;;;8.60;90.90;;;;;;5035591;28;20064;-62
2022/02/19 10:13:34;;;;;;;3.65;1.40;;;8.60;90.10;;;;;;5050345;28;20393;-62
2022/02/19 10:16:04;;;;;;;7.50;2.22;;;8.60;90.20;;;;;;5052431;28;20104;-62
2022/02/19 10:18:32;;;;;;;5.75;1.88;;;8.70;90.10;;;;;;5053876;28;20036;-62
2022/02/19 10:21:14;;;;;;;6.93;2.00;;;8.70;90.10;;;;;;5058918;28;20021;-62
2022/02/19 10:23:45;;;;;;;5.07;1.65;;;8.80;89.90;;;;;;5039499;28;20105;-62
2022/02/19 10:26:11;;;;;;;4.82;1.75;;;8.80;89.40;;;;;;5063698;28;20467;-62
2022/02/19 10:28:37;;;;;;;3.90;1.90;;;8.90;89.10;;;;;;5062579;28;20061;-62
2022/02/19 10:31:14;;;;;;;7.38;2.08;;;8.90;88.50;;;;;;5037478;28;20091;-62
2022/02/19 10:33:39;;;;;;;5.57;1.73;;;8.90;88.20;;;;;;5015571;28;20040;-62
2022/02/19 10:36:20;;;;;;;5.40;1.58;;;8.90;87.30;;;;;;5033261;28;20468;-62
2022/02/19 10:38:59;;;;;;;3.70;2.13;;;9.00;87.60;;;;;;5052007;28;20120;-62
2022/02/19 10:41:51;;;;;;;5.85;2.08;;;9.00;87.50;;;;;;5048354;28;20029;-63
2022/02/19 10:44:26;;;;;;;5.80;1.60;;;9.00;86.20;;;;;;5033384;28;20037;-63
2022/02/19 10:47:20;;;;;;;4.80;1.50;;;9.00;85.40;;;;;;5039009;28;20085;-63
2022/02/19 10:50:05;;;;;;;3.67;1.70;;;9.10;85.00;;;;;;5033766;28;20120;-63
2022/02/19 10:52:30;;;;;;;6.35;1.52;;;9.10;85.40;;;;;;5053094;28;20033;-63
2022/02/19 10:55:04;;;;;;;6.43;2.05;;;9.20;85.20;;;;;;5043992;28;20104;-63
2022/02/19 10:57:35;;;;;;;6.18;1.95;;;9.20;85.70;;;;;;5058213;28;20028;-63
2022/02/19 11:00:11;;;;;;;3.75;1.42;;;9.20;85.60;;;;;;5035070;28;20080;-63
2022/02/19 11:02:38;;;;;;;7.00;2.08;;;9.20;84.60;;;;;;5053829;28;20033;-63
2022/02/19 11:05:09;;;;;;;7.00;1.95;;;9.20;84.40;;;;;;5033682;28;20072;-63
2022/02/19 11:07:39;;;;;;;4.68;1.50;;;9.20;85.20;;;;;;5056090;28;20108;-62
2022/02/19 11:10:06;;;;;;;5.10;2.40;;;9.20;84.70;;;;;;5035933;28;20043;-63
2022/02/19 11:12:32;;;;;;;6.80;2.22;;;9.10;84.80;;;;;;5057397;28;20070;-62
2022/02/19 11:14:58;;;;;;;5.70;1.83;;;9.10;85.60;;;;;;5033397;28;20034;-63
2022/02/19 11:17:26;;;;;;;6.72;1.55;;;9.20;85.10;;;;;;5044352;28;20020;-62
2022/02/19 11:19:51;;;;;;;4.47;1.85;;;9.20;85.20;;;;;;5044355;28;20128;-62
2022/02/19 11:22:20;;;;;;;8.95;2.42;;;9.20;84.70;;;;;;5041790;28;20163;-61
2022/02/19 11:24:46;;;;;;;6.75;1.77;;;9.20;85.20;;;;;;5043534;28;20036;-62
2022/02/19 11:27:13;;;;;;;8.13;1.70;;;9.30;84.20;;;;;;5041033;28;20376;-61
2022/02/19 11:29:39;;;;;;;7.13;1.75;;;9.20;83.50;;;;;;5047685;28;20030;-62
2022/02/19 11:32:05;;;;;;;5.60;1.85;;;9.20;83.70;;;;;;5030885;28;20136;-62
2022/02/19 11:34:31;;;;;;;6.38;1.98;;;9.20;83.70;;;;;;5034053;28;20109;-62
2022/02/19 11:37:13;;;;;;;4.07;1.60;;;9.20;83.30;;;;;;5052607;28;20044;-62
2022/02/19 11:39:57;;;;;;;7.80;2.50;;;9.10;82.60;;;;;;5036911;28;20507;-62
2022/02/19 11:42:38;;;;;;;5.32;2.20;;;9.20;82.70;;;;;;5045787;28;20054;-63
2022/02/19 11:45:27;;;;;;;7.88;2.13;;;9.20;82.80;;;;;;5034854;28;20537;-63
2022/02/19 11:48:01;;;;;;;7.88;1.92;;;9.30;82.70;;;;;;5035973;28;20128;-62
2022/02/19 11:50:29;;;;;;;5.15;1.92;;;9.30;82.10;;;;;;5049981;28;20048;-62
2022/02/19 11:53:10;;;;;;;9.10;2.20;;;9.40;82.10;;;;;;5050279;28;20043;-62
2022/02/19 11:55:38;;;;;;;3.88;1.40;;;9.50;81.70;;;;;;5061093;28;20029;-63
2022/02/19 11:58:12;;;;;;;6.72;2.10;;;9.60;81.30;;;;;;5044679;28;20302;-63
2022/02/19 12:00:56;;;;;;;4.20;1.50;;;9.60;81.20;;;;;;5063047;28;20064;-63
2022/02/19 12:03:34;;;;;;;8.23;1.80;;;9.60;80.70;;;;;;5041097;28;20036;-62
2022/02/19 12:06:14;;;;;;;8.45;2.30;;;9.60;79.50;;;;;;5041543;28;20057;-62
2022/02/19 12:08:48;;;;;;;7.55;2.13;;;9.60;78.80;;;;;;5042152;28;20033;-62
2022/02/19 12:11:15;;;;;;;7.22;1.80;;;9.60;78.00;;;;;;5050734;28;20155;-62
2022/02/19 12:13:46;;;;;;;4.70;1.55;;;9.50;78.00;;;;;;5040490;28;20025;-61
2022/02/19 12:16:27;;;;;;;8.50;2.35;;;9.50;77.40;;;;;;5050055;28;20029;-63
2022/02/19 12:18:56;;;;;;;8.40;2.10;;;9.60;77.10;;;;;;5042382;28;20040;-62
2022/02/19 12:21:41;;;;;;;5.72;1.83;;;9.60;76.00;;;;;;5052895;28;20074;-62
2022/02/19 12:24:26;;;;;;;4.93;1.70;;;9.60;75.90;;;;;;5046572;28;20048;-62
2022/02/19 12:26:57;;;;;;;7.18;1.77;;;9.60;75.20;;;;;;5048801;28;20052;-62
2022/02/19 12:29:38;;;;;;;7.32;1.75;;;9.60;75.10;;;;;;5050879;28;20046;-62
2022/02/19 12:32:17;;;;;;;5.00;2.00;;;9.60;74.50;;;;;;5047639;28;20033;-62
2022/02/19 12:34:57;;;;;;;6.07;1.70;;;9.70;73.40;;;;;;5045940;28;20025;-62
2022/02/19 12:37:23;;;;;;;6.03;2.00;;;9.70;74.20;;;;;;5045852;28;20021;-62
2022/02/19 12:39:52;;;;;;;5.32;2.22;;;9.70;74.30;;;;;;5051991;28;20041;-62
2022/02/19 12:42:21;;;;;;;4.88;1.52;;;9.80;74.30;;;;;;5044895;28;20330;-62
2022/02/19 12:44:57;;;;;;;8.32;2.00;;;9.70;74.30;;;;;;5046894;28;20055;-62
2022/02/19 12:47:23;;;;;;;3.90;1.90;;;9.70;73.70;;;;;;5044329;28;20468;-63
2022/02/19 12:49:49;;;;;;;6.63;1.95;;;9.80;74.00;;;;;;5045329;28;20078;-61
2022/02/19 12:52:14;;;;;;;5.55;1.75;;;9.80;73.30;;;;;;5038754;28;20180;-61
2022/02/19 12:54:45;;;;;;;4.80;2.30;;;9.90;72.80;;;;;;5048941;28;20021;-62
2022/02/19 12:57:14;;;;;;;6.05;1.58;;;9.90;72.90;;;;;;5042562;28;20037;-63
2022/02/19 12:59:43;;;;;;;6.55;1.80;;;9.90;73.10;;;;;;5052527;28;20028;-64
2022/02/19 13:02:10;;;;;;;8.23;2.90;;;9.90;72.90;;;;;;5050652;28;20036;-62
2022/02/19 13:04:38;;;;;;;5.72;2.00;;;10.00;72.70;;;;;;5041584;28;20422;-63
2022/02/19 13:07:05;;;;;;;4.53;1.52;;;10.00;72.90;;;;;;5033595;28;20032;-63